createdAt,value
2022-10-08T00:00:31.787Z,50.866741
2022-10-08T00:01:30.825Z,50.866760
2022-10-08T00:02:30.765Z,50.866798
2022-10-08T00:03:30.758Z,50.866764
2022-10-08T00:04:30.811Z,50.866734
2022-10-08T00:05:30.752Z,50.866711
2022-10-08T00:06:30.777Z,50.866779
2022-10-08T00:07:30.717Z,50.866817
2022-10-08T00:08:30.723Z,50.866768
2022-10-08T00:09:30.721Z,50.866779
2022-10-08T00:10:31.295Z,50.866768
2022-10-08T00:11:30.690Z,50.866753
2022-10-08T00:12:30.681Z,50.866817
2022-10-08T00:13:31.294Z,50.866749
2022-10-08T00:14:30.682Z,50.866791
2022-10-08T00:15:30.660Z,50.866619
2022-10-08T00:16:30.725Z,50.866776
2022-10-08T00:17:30.648Z,50.866764
2022-10-08T00:18:30.651Z,50.866764
2022-10-08T00:19:30.634Z,50.866745
2022-10-08T00:20:30.626Z,50.866650
2022-10-08T00:21:30.614Z,50.866730
2022-10-08T00:22:30.614Z,50.866714
2022-10-08T00:23:30.600Z,50.866684
2022-10-08T00:24:30.597Z,50.866692
2022-10-08T00:25:30.581Z,50.866737
2022-10-08T00:26:30.573Z,50.866745
2022-10-08T00:27:30.568Z,50.866783
2022-10-08T00:28:30.693Z,50.866734
2022-10-08T00:40:31.504Z,50.866550
2022-10-08T00:41:31.490Z,50.866611
2022-10-08T00:42:31.481Z,50.866692
2022-10-08T00:43:31.476Z,50.866825
2022-10-08T00:44:31.461Z,50.866779
2022-10-08T00:45:31.518Z,50.866726
2022-10-08T00:46:31.449Z,50.866840
2022-10-08T00:47:31.447Z,50.866886
2022-10-08T00:48:31.423Z,50.866890
2022-10-08T00:49:32.422Z,50.866867
2022-10-08T00:50:31.425Z,50.866749
2022-10-08T00:51:31.407Z,50.866718
2022-10-08T00:52:31.401Z,50.866783
2022-10-08T00:53:31.391Z,50.866634
2022-10-08T00:54:31.395Z,50.866570
2022-10-08T00:55:31.388Z,50.866848
2022-10-08T00:56:31.370Z,50.866798
2022-10-08T00:57:31.368Z,50.866730
2022-10-08T00:58:31.362Z,50.866734
2022-10-08T00:59:31.346Z,50.866783
2022-10-08T01:00:31.421Z,50.866764
2022-10-08T01:01:31.330Z,50.866787
2022-10-08T01:02:31.401Z,50.866760
2022-10-08T01:03:31.307Z,50.866772
2022-10-08T01:04:31.312Z,50.866783
2022-10-08T01:05:31.308Z,50.866802
2022-10-08T01:06:31.285Z,50.866810
2022-10-08T01:07:31.288Z,50.866814
2022-10-08T01:08:31.269Z,50.866837
2022-10-08T01:09:31.265Z,50.866856
2022-10-08T01:10:31.260Z,50.866825
2022-10-08T01:11:31.243Z,50.866920
2022-10-08T01:12:31.897Z,50.866791
2022-10-08T01:13:31.222Z,50.866745
2022-10-08T01:14:31.962Z,50.866882
2022-10-08T01:15:31.229Z,50.866764
2022-10-08T01:16:31.262Z,50.866779
2022-10-08T01:17:31.195Z,50.866741
2022-10-08T01:18:31.200Z,50.866714
2022-10-08T01:19:31.276Z,50.866753
2022-10-08T01:20:31.195Z,50.866768
2022-10-08T01:21:31.157Z,50.866837
2022-10-08T01:22:31.151Z,50.866871
2022-10-08T01:23:31.152Z,50.866814
2022-10-08T01:24:31.133Z,50.866787
2022-10-08T01:25:31.122Z,50.866684
2022-10-08T01:26:31.123Z,50.866722
2022-10-08T01:27:31.106Z,50.866806
2022-10-08T01:28:31.266Z,50.866787
2022-10-08T01:29:31.964Z,50.866863
2022-10-08T01:30:31.092Z,50.866920
2022-10-08T01:31:31.197Z,50.866917
2022-10-08T01:32:31.073Z,50.866879
2022-10-08T01:33:31.063Z,50.866817
2022-10-08T01:34:31.051Z,50.866760
2022-10-08T01:35:31.043Z,50.866867
2022-10-08T01:36:31.042Z,50.866871
2022-10-08T01:37:31.029Z,50.866875
2022-10-08T01:38:31.011Z,50.866905
2022-10-08T01:39:31.008Z,50.866943
2022-10-08T01:40:31.000Z,50.866882
2022-10-08T01:41:31.027Z,50.866982
2022-10-08T01:42:30.980Z,50.866814
2022-10-08T01:43:30.968Z,50.866882
2022-10-08T01:44:30.962Z,50.866859
2022-10-08T01:45:31.068Z,50.866844
2022-10-08T01:46:30.944Z,50.866810
2022-10-08T01:47:30.965Z,50.866837
2022-10-08T01:48:30.937Z,50.866840
2022-10-08T01:49:30.930Z,50.866928
2022-10-08T01:50:30.942Z,50.866882
2022-10-08T01:51:30.925Z,50.866806
2022-10-08T01:52:30.910Z,50.866936
2022-10-08T01:53:30.898Z,50.867001
2022-10-08T01:54:30.888Z,50.867134
2022-10-08T01:55:30.956Z,50.867043
2022-10-08T01:56:30.862Z,50.867092
2022-10-08T01:57:30.863Z,50.867092
2022-10-08T01:58:30.860Z,50.867115
2022-10-08T01:59:30.845Z,50.867100
2022-10-08T02:00:30.869Z,50.867069
2022-10-08T02:01:30.873Z,50.867050
2022-10-08T02:02:30.921Z,50.866806
2022-10-08T02:03:30.806Z,50.866871
2022-10-08T02:04:30.809Z,50.866856
2022-10-08T02:05:31.361Z,50.866817
2022-10-08T02:06:30.799Z,50.866848
2022-10-08T02:07:30.775Z,50.866837
2022-10-08T02:08:30.771Z,50.866810
2022-10-08T02:09:30.765Z,50.866730
2022-10-08T02:10:30.754Z,50.866756
2022-10-08T02:11:30.754Z,50.866764
2022-10-08T02:12:30.740Z,50.866768
2022-10-08T02:13:30.724Z,50.866768
2022-10-08T02:14:30.720Z,50.866852
2022-10-08T02:15:30.739Z,50.866760
2022-10-08T02:16:30.777Z,50.866787
2022-10-08T02:17:31.702Z,50.866840
2022-10-08T02:18:30.692Z,50.866863
2022-10-08T02:19:30.687Z,50.866730
2022-10-08T02:20:30.668Z,50.866856
2022-10-08T02:21:30.663Z,50.866894
2022-10-08T02:22:30.657Z,50.866863
2022-10-08T02:23:30.643Z,50.866882
2022-10-08T02:24:30.652Z,50.866821
2022-10-08T02:25:34.423Z,50.866882
2022-10-08T02:26:30.616Z,50.866875
2022-10-08T02:27:30.611Z,50.866810
2022-10-08T02:28:30.658Z,50.866848
2022-10-08T02:29:30.591Z,50.866928
2022-10-08T02:30:30.600Z,50.867001
2022-10-08T02:31:30.609Z,50.866970
2022-10-08T02:32:30.587Z,50.866814
2022-10-08T02:33:30.577Z,50.866882
2022-10-08T02:34:30.577Z,50.866848
2022-10-08T02:35:30.555Z,50.866783
2022-10-08T02:36:30.545Z,50.866741
2022-10-08T02:37:30.533Z,50.866882
2022-10-08T02:38:31.443Z,50.866924
2022-10-08T02:39:30.528Z,50.866852
2022-10-08T02:40:30.566Z,50.866840
2022-10-08T02:41:30.511Z,50.866814
2022-10-08T02:42:30.503Z,50.866875
2022-10-08T02:43:30.496Z,50.866844
2022-10-08T02:44:30.476Z,50.866829
2022-10-08T02:45:30.514Z,50.866871
2022-10-08T02:46:30.460Z,50.866901
2022-10-08T02:47:30.455Z,50.866844
2022-10-08T02:48:30.452Z,50.866833
2022-10-08T02:49:30.443Z,50.866814
2022-10-08T02:50:30.432Z,50.866856
2022-10-08T02:51:30.431Z,50.866837
2022-10-08T02:52:30.421Z,50.866871
2022-10-08T02:53:30.408Z,50.866928
2022-10-08T02:54:30.396Z,50.866886
2022-10-08T02:55:30.394Z,50.866859
2022-10-08T02:56:30.385Z,50.866890
2022-10-08T03:01:37.483Z,50.866737
2022-10-08T03:02:37.495Z,50.866783
2022-10-08T03:03:37.412Z,50.866863
2022-10-08T03:04:37.405Z,50.866894
2022-10-08T03:05:37.393Z,50.866810
2022-10-08T03:06:37.388Z,50.866829
2022-10-08T03:07:37.389Z,50.866943
2022-10-08T03:08:37.385Z,50.867023
2022-10-08T03:09:37.357Z,50.866932
2022-10-08T03:10:37.344Z,50.866863
2022-10-08T03:11:37.344Z,50.866783
2022-10-08T03:12:37.333Z,50.866783
2022-10-08T03:13:37.322Z,50.866852
2022-10-08T03:14:37.315Z,50.866844
2022-10-08T03:15:37.311Z,50.866859
2022-10-08T03:16:38.147Z,50.866879
2022-10-08T03:17:37.296Z,50.866840
2022-10-08T03:18:37.298Z,50.866898
2022-10-08T03:19:37.273Z,50.866909
2022-10-08T03:20:37.268Z,50.866871
2022-10-08T03:21:37.280Z,50.866920
2022-10-08T03:22:37.250Z,50.866932
2022-10-08T03:23:37.246Z,50.866932
2022-10-08T03:24:37.233Z,50.866837
2022-10-08T03:25:37.227Z,50.866840
2022-10-08T03:26:37.226Z,50.866890
2022-10-08T03:27:37.216Z,50.866882
2022-10-08T03:28:37.245Z,50.866871
2022-10-08T03:29:37.202Z,50.866936
2022-10-08T03:30:37.230Z,50.866867
2022-10-08T03:31:37.178Z,50.866856
2022-10-08T03:32:37.168Z,50.866726
2022-10-08T03:33:37.179Z,50.866760
2022-10-08T03:34:37.160Z,50.866734
2022-10-08T03:35:37.151Z,50.866680
2022-10-08T03:36:37.136Z,50.866703
2022-10-08T03:37:37.130Z,50.866695
2022-10-08T03:38:37.129Z,50.866695
2022-10-08T03:39:37.113Z,50.866684
2022-10-08T03:40:37.104Z,50.866714
2022-10-08T03:41:37.097Z,50.866684
2022-10-08T03:42:37.108Z,50.866722
2022-10-08T03:43:37.093Z,50.866714
2022-10-08T03:44:37.081Z,50.866676
2022-10-08T03:45:37.064Z,50.866703
2022-10-08T03:46:37.097Z,50.866730
2022-10-08T03:47:37.067Z,50.866703
2022-10-08T03:48:37.061Z,50.866711
2022-10-08T03:49:37.034Z,50.866718
2022-10-08T03:50:37.028Z,50.866688
2022-10-08T03:51:37.589Z,50.866718
2022-10-08T03:52:37.011Z,50.866692
2022-10-08T03:53:37.050Z,50.866669
2022-10-08T03:54:36.992Z,50.866673
2022-10-08T03:55:36.989Z,50.866676
2022-10-08T03:56:36.984Z,50.866657
2022-10-08T03:57:36.966Z,50.866623
2022-10-08T03:58:36.969Z,50.866611
2022-10-08T03:59:36.963Z,50.866646
2022-10-08T04:00:36.950Z,50.866634
2022-10-08T04:01:37.022Z,50.866661
2022-10-08T04:02:36.967Z,50.866703
2022-10-08T04:03:36.922Z,50.866714
2022-10-08T04:04:36.922Z,50.866657
2022-10-08T04:05:36.919Z,50.866665
2022-10-08T04:06:36.898Z,50.866661
2022-10-08T04:07:37.516Z,50.866608
2022-10-08T04:08:36.877Z,50.866646
2022-10-08T04:09:36.884Z,50.866638
2022-10-08T04:10:36.868Z,50.866619
2022-10-08T04:11:37.599Z,50.866631
2022-10-08T04:12:36.877Z,50.866676
2022-10-08T04:13:36.837Z,50.866711
2022-10-08T04:14:36.839Z,50.866684
2022-10-08T04:15:36.871Z,50.866791
2022-10-08T04:16:36.817Z,50.866707
2022-10-08T04:17:36.807Z,50.866680
2022-10-08T04:18:37.594Z,50.866695
2022-10-08T04:19:36.792Z,50.866714
2022-10-08T04:20:36.782Z,50.866718
2022-10-08T04:21:36.786Z,50.866707
2022-10-08T04:22:36.773Z,50.866688
2022-10-08T04:23:36.774Z,50.866703
2022-10-08T04:24:36.760Z,50.866714
2022-10-08T04:25:36.755Z,50.866745
2022-10-08T04:26:36.735Z,50.866734
2022-10-08T04:27:36.730Z,50.866714
2022-10-08T04:28:38.909Z,50.866711
2022-10-08T04:29:37.722Z,50.866741
2022-10-08T04:30:36.706Z,50.866737
2022-10-08T04:31:36.709Z,50.866726
2022-10-08T04:32:36.687Z,50.866722
2022-10-08T04:33:36.695Z,50.866730
2022-10-08T04:34:36.687Z,50.866779
2022-10-08T04:35:36.668Z,50.866764
2022-10-08T04:36:36.675Z,50.866737
2022-10-08T04:37:36.655Z,50.866722
2022-10-08T04:38:36.650Z,50.866730
2022-10-08T04:39:36.636Z,50.866756
2022-10-08T04:40:36.628Z,50.866779
2022-10-08T04:41:36.634Z,50.866756
2022-10-08T04:42:36.609Z,50.866764
2022-10-08T04:43:36.611Z,50.866772
2022-10-08T04:44:36.596Z,50.866699
2022-10-08T04:45:36.587Z,50.866749
2022-10-08T04:46:36.713Z,50.866749
2022-10-08T04:47:36.569Z,50.866730
2022-10-08T04:48:36.562Z,50.866772
2022-10-08T04:49:36.549Z,50.866726
2022-10-08T04:50:36.549Z,50.866676
2022-10-08T04:51:36.548Z,50.866623
2022-10-08T04:52:36.548Z,50.866653
2022-10-08T04:53:36.523Z,50.866692
2022-10-08T04:54:36.530Z,50.866653
2022-10-08T04:55:36.506Z,50.866688
2022-10-08T04:56:36.510Z,50.866711
2022-10-08T04:57:36.507Z,50.866890
2022-10-08T04:58:36.494Z,50.866863
2022-10-08T04:59:45.062Z,50.866940
2022-10-08T05:00:37.476Z,50.866829
2022-10-08T05:01:36.511Z,50.866882
2022-10-08T05:02:36.572Z,50.866791
2022-10-08T05:03:36.448Z,50.866871
2022-10-08T05:04:36.435Z,50.866783
2022-10-08T05:05:36.432Z,50.866764
2022-10-08T05:06:36.424Z,50.866886
2022-10-08T05:07:36.431Z,50.866867
2022-10-08T05:08:36.408Z,50.866840
2022-10-08T05:09:36.395Z,50.866764
2022-10-08T05:10:36.397Z,50.866745
2022-10-08T05:11:36.410Z,50.866692
2022-10-08T05:12:36.382Z,50.866703
2022-10-08T05:13:36.374Z,50.866688
2022-10-08T05:14:36.354Z,50.866661
2022-10-08T05:15:36.415Z,50.866676
2022-10-08T05:16:36.343Z,50.866699
2022-10-08T05:17:36.326Z,50.866741
2022-10-08T05:18:36.325Z,50.866695
2022-10-08T05:19:36.335Z,50.866726
2022-10-08T05:20:36.311Z,50.866711
2022-10-08T05:21:36.333Z,50.866756
2022-10-08T05:22:36.291Z,50.866779
2022-10-08T05:23:36.290Z,50.866787
2022-10-08T05:24:36.282Z,50.866745
2022-10-08T05:25:36.272Z,50.866714
2022-10-08T05:26:56.961Z,50.866749
2022-10-08T05:27:38.279Z,50.866749
2022-10-08T05:28:36.371Z,50.866783
2022-10-08T05:29:36.243Z,50.866772
2022-10-08T05:30:36.236Z,50.866768
2022-10-08T05:31:36.346Z,50.866783
2022-10-08T05:32:37.034Z,50.866776
2022-10-08T05:33:36.202Z,50.866768
2022-10-08T05:34:36.199Z,50.866756
2022-10-08T05:35:36.202Z,50.866779
2022-10-08T05:36:36.172Z,50.866787
2022-10-08T05:37:36.172Z,50.866768
2022-10-08T05:38:36.159Z,50.866764
2022-10-08T05:39:36.173Z,50.866798
2022-10-08T05:40:36.147Z,50.866783
2022-10-08T05:41:36.133Z,50.866802
2022-10-08T05:42:36.126Z,50.866802
2022-10-08T05:43:36.116Z,50.866768
2022-10-08T05:44:37.714Z,50.866810
2022-10-08T05:45:37.118Z,50.866772
2022-10-08T05:46:36.127Z,50.866764
2022-10-08T05:47:36.083Z,50.866795
2022-10-08T05:48:36.073Z,50.866756
2022-10-08T05:49:36.617Z,50.866787
2022-10-08T05:50:36.073Z,50.866772
2022-10-08T05:51:36.052Z,50.866756
2022-10-08T05:52:36.047Z,50.866776
2022-10-08T05:53:36.036Z,50.866760
2022-10-08T05:54:36.040Z,50.866798
2022-10-08T05:55:36.015Z,50.866798
2022-10-08T05:56:36.032Z,50.866768
2022-10-08T05:57:36.003Z,50.866798
2022-10-08T05:58:35.992Z,50.866783
2022-10-08T05:59:35.981Z,50.866764
2022-10-08T06:00:35.976Z,50.866726
2022-10-08T06:01:35.975Z,50.866722
2022-10-08T06:02:36.045Z,50.866760
2022-10-08T06:03:35.955Z,50.866741
2022-10-08T06:04:35.970Z,50.866741
2022-10-08T06:05:35.941Z,50.866745
2022-10-08T06:06:35.944Z,50.866726
2022-10-08T06:07:35.923Z,50.866741
2022-10-08T06:08:35.909Z,50.866726
2022-10-08T06:09:35.906Z,50.866707
2022-10-08T06:10:35.895Z,50.866737
2022-10-08T06:11:35.898Z,50.866760
2022-10-08T06:12:35.879Z,50.866722
2022-10-08T06:13:35.891Z,50.866734
2022-10-08T06:14:35.865Z,50.866741
2022-10-08T06:15:35.854Z,50.866726
2022-10-08T06:16:35.932Z,50.866749
2022-10-08T06:17:35.849Z,50.866726
2022-10-08T06:18:35.835Z,50.866722
2022-10-08T06:19:35.838Z,50.866711
2022-10-08T06:20:35.810Z,50.866745
2022-10-08T06:21:35.810Z,50.866737
2022-10-08T06:22:35.794Z,50.866791
2022-10-08T06:23:35.790Z,50.866718
2022-10-08T06:24:36.505Z,50.866745
2022-10-08T06:25:35.770Z,50.866737
2022-10-08T06:26:36.416Z,50.866745
2022-10-08T06:27:37.546Z,50.866768
2022-10-08T06:28:35.807Z,50.866768
2022-10-08T06:29:35.734Z,50.866764
2022-10-08T06:30:35.722Z,50.866802
2022-10-08T06:31:36.862Z,50.866871
2022-10-08T06:32:35.715Z,50.866882
2022-10-08T06:33:35.713Z,50.866901
2022-10-08T06:34:35.695Z,50.866898
2022-10-08T06:35:35.717Z,50.866898
2022-10-08T06:36:35.681Z,50.866882
2022-10-08T06:37:35.667Z,50.866932
2022-10-08T06:38:35.728Z,50.866859
2022-10-08T06:39:35.767Z,50.866879
2022-10-08T06:40:35.651Z,50.866913
2022-10-08T06:41:35.644Z,50.866871
2022-10-08T06:42:35.631Z,50.866962
2022-10-08T06:43:35.620Z,50.867119
2022-10-08T06:44:35.610Z,50.866856
2022-10-08T06:45:35.609Z,50.866890
2022-10-08T06:46:35.676Z,50.866695
2022-10-08T06:47:35.589Z,50.866657
2022-10-08T06:48:35.577Z,50.866707
2022-10-08T06:49:35.574Z,50.866772
2022-10-08T06:50:35.575Z,50.866909
2022-10-08T06:51:35.571Z,50.866951
2022-10-08T06:52:35.584Z,50.866859
2022-10-08T06:53:35.546Z,50.866779
2022-10-08T06:54:35.531Z,50.866741
2022-10-08T06:55:35.531Z,50.866787
2022-10-08T06:56:35.533Z,50.866756
2022-10-08T06:57:35.514Z,50.866848
2022-10-08T06:58:35.504Z,50.866879
2022-10-08T06:59:35.502Z,50.866825
2022-10-08T07:00:35.597Z,50.866905
2022-10-08T07:01:35.913Z,50.866913
2022-10-08T07:02:35.576Z,50.866875
2022-10-08T07:03:35.462Z,50.866833
2022-10-08T07:04:35.453Z,50.866848
2022-10-08T07:05:35.451Z,50.866783
2022-10-08T07:06:35.446Z,50.866840
2022-10-08T07:07:35.435Z,50.866871
2022-10-08T07:08:35.414Z,50.866898
2022-10-08T07:09:35.422Z,50.866856
2022-10-08T07:10:35.398Z,50.866814
2022-10-08T07:11:35.421Z,50.866859
2022-10-08T07:12:35.383Z,50.866817
2022-10-08T07:13:35.376Z,50.866787
2022-10-08T07:14:35.370Z,50.866798
2022-10-08T07:15:35.358Z,50.866795
2022-10-08T07:16:35.403Z,50.866829
2022-10-08T07:17:35.374Z,50.866852
2022-10-08T07:18:35.334Z,50.866909
2022-10-08T07:19:35.326Z,50.866856
2022-10-08T07:20:35.328Z,50.866833
2022-10-08T07:21:35.311Z,50.866852
2022-10-08T07:22:35.312Z,50.866886
2022-10-08T07:23:35.300Z,50.866867
2022-10-08T07:24:35.288Z,50.866821
2022-10-08T07:25:35.279Z,50.866802
2022-10-08T07:26:35.276Z,50.866802
2022-10-08T07:27:35.277Z,50.866848
2022-10-08T07:28:35.272Z,50.866867
2022-10-08T07:29:35.252Z,50.866913
2022-10-08T07:30:35.250Z,50.866951
2022-10-08T07:31:35.326Z,50.866875
2022-10-08T07:32:36.061Z,50.866863
2022-10-08T07:33:35.210Z,50.866879
2022-10-08T07:34:35.214Z,50.866837
2022-10-08T07:35:35.216Z,50.866821
2022-10-08T07:36:35.195Z,50.866837
2022-10-08T07:37:35.179Z,50.866890
2022-10-08T07:38:35.179Z,50.866882
2022-10-08T07:39:35.162Z,50.866959
2022-10-08T07:40:35.159Z,50.866810
2022-10-08T07:41:35.152Z,50.866802
2022-10-08T07:42:35.144Z,50.866783
2022-10-08T07:43:35.148Z,50.866802
2022-10-08T07:44:35.123Z,50.866802
2022-10-08T07:45:35.153Z,50.866806
2022-10-08T07:46:35.132Z,50.866756
2022-10-08T07:47:35.111Z,50.866753
2022-10-08T07:48:35.097Z,50.866768
2022-10-08T07:49:35.080Z,50.866787
2022-10-08T07:50:36.079Z,50.866795
2022-10-08T07:51:35.068Z,50.866772
2022-10-08T07:52:35.058Z,50.866776
2022-10-08T07:53:35.063Z,50.866791
2022-10-08T07:54:35.049Z,50.866810
2022-10-08T07:55:35.033Z,50.866768
2022-10-08T07:56:35.033Z,50.866814
2022-10-08T07:57:35.021Z,50.866753
2022-10-08T07:58:35.011Z,50.866726
2022-10-08T07:59:35.022Z,50.866802
2022-10-08T08:00:35.043Z,50.866814
2022-10-08T08:01:34.982Z,50.866787
2022-10-08T08:02:35.023Z,50.866821
2022-10-08T08:03:35.583Z,50.866829
2022-10-08T08:04:34.964Z,50.866795
2022-10-08T08:05:34.950Z,50.866825
2022-10-08T08:06:34.945Z,50.866783
2022-10-08T08:07:34.938Z,50.866879
2022-10-08T08:08:34.937Z,50.866829
2022-10-08T08:09:34.919Z,50.866833
2022-10-08T08:10:34.913Z,50.866848
2022-10-08T08:11:34.911Z,50.866879
2022-10-08T08:12:34.917Z,50.866867
2022-10-08T08:13:37.199Z,50.866863
2022-10-08T08:14:37.589Z,50.866848
2022-10-08T08:15:34.870Z,50.866875
2022-10-08T08:16:34.953Z,50.866970
2022-10-08T08:17:34.872Z,50.866886
2022-10-08T08:18:34.842Z,50.866886
2022-10-08T08:19:34.841Z,50.866879
2022-10-08T08:20:34.824Z,50.866859
2022-10-08T08:21:34.825Z,50.866814
2022-10-08T08:22:34.815Z,50.866894
2022-10-08T08:23:34.805Z,50.866917
2022-10-08T08:24:36.576Z,50.866768
2022-10-08T08:25:34.785Z,50.866810
2022-10-08T08:26:34.773Z,50.866844
2022-10-08T08:27:34.773Z,50.866917
2022-10-08T08:28:35.712Z,50.866875
2022-10-08T08:29:35.759Z,50.866947
2022-10-08T08:30:34.747Z,50.866913
2022-10-08T08:31:34.942Z,50.866882
2022-10-08T08:32:34.738Z,50.866974
2022-10-08T08:33:34.722Z,50.866970
2022-10-08T08:34:34.721Z,50.866863
2022-10-08T08:35:34.703Z,50.866779
2022-10-08T08:36:34.700Z,50.866913
2022-10-08T08:37:34.692Z,50.866955
2022-10-08T08:38:34.677Z,50.866837
2022-10-08T08:39:34.683Z,50.866852
2022-10-08T08:40:34.673Z,50.866913
2022-10-08T08:41:34.665Z,50.866871
2022-10-08T08:42:34.651Z,50.866905
2022-10-08T08:43:34.679Z,50.866917
2022-10-08T08:44:34.651Z,50.866917
2022-10-08T08:45:46.355Z,50.866989
2022-10-08T08:46:35.646Z,50.866932
2022-10-08T08:47:34.614Z,50.866985
2022-10-08T08:48:34.604Z,50.867058
2022-10-08T08:49:35.083Z,50.866886
2022-10-08T08:50:35.584Z,50.867016
2022-10-08T08:51:34.587Z,50.866886
2022-10-08T08:52:34.576Z,50.867054
2022-10-08T08:53:34.587Z,50.867069
2022-10-08T08:54:34.567Z,50.867157
2022-10-08T08:55:34.571Z,50.867107
2022-10-08T08:56:34.544Z,50.866997
2022-10-08T08:57:34.532Z,50.867195
2022-10-08T08:58:34.543Z,50.867195
2022-10-08T08:59:34.538Z,50.867115
2022-10-08T09:00:34.510Z,50.866913
2022-10-08T09:01:34.574Z,50.867092
2022-10-08T09:02:35.162Z,50.866966
2022-10-08T09:03:34.499Z,50.866825
2022-10-08T09:04:34.498Z,50.866703
2022-10-08T09:05:34.620Z,50.866676
2022-10-08T09:06:34.467Z,50.866707
2022-10-08T09:07:34.461Z,50.866722
2022-10-08T09:08:34.468Z,50.866798
2022-10-08T09:09:35.165Z,50.866741
2022-10-08T09:10:34.437Z,50.866695
2022-10-08T09:11:34.447Z,50.866726
2022-10-08T09:12:34.427Z,50.866669
2022-10-08T09:13:34.424Z,50.866718
2022-10-08T09:14:34.403Z,50.866760
2022-10-08T09:15:35.174Z,50.866718
2022-10-08T09:16:35.133Z,50.866688
2022-10-08T09:17:34.376Z,50.866642
2022-10-08T09:18:34.376Z,50.866680
2022-10-08T09:19:34.370Z,50.866711
2022-10-08T09:20:39.328Z,50.866665
2022-10-08T09:21:36.369Z,50.866661
2022-10-08T09:22:34.349Z,50.866791
2022-10-08T09:23:34.339Z,50.866631
2022-10-08T09:24:34.327Z,50.866688
2022-10-08T09:25:34.318Z,50.866707
2022-10-08T09:26:34.313Z,50.866634
2022-10-08T09:27:34.301Z,50.866703
2022-10-08T09:28:34.354Z,50.866642
2022-10-08T09:29:34.281Z,50.866634
2022-10-08T09:30:34.372Z,50.866829
2022-10-08T09:31:34.322Z,50.866940
2022-10-08T09:32:34.268Z,50.867050
2022-10-08T09:33:34.303Z,50.866901
2022-10-08T09:34:34.271Z,50.866947
2022-10-08T09:35:34.237Z,50.866879
2022-10-08T09:36:34.232Z,50.866859
2022-10-08T09:37:34.232Z,50.866703
2022-10-08T09:38:34.223Z,50.866890
2022-10-08T09:39:34.218Z,50.866901
2022-10-08T09:40:34.202Z,50.866905
2022-10-08T09:41:35.099Z,50.866890
2022-10-08T09:42:34.176Z,50.866913
2022-10-08T09:43:34.167Z,50.866982
2022-10-08T09:44:34.174Z,50.866978
2022-10-08T09:45:34.153Z,50.866974
2022-10-08T09:46:34.147Z,50.866997
2022-10-08T09:47:34.140Z,50.866859
2022-10-08T09:48:34.130Z,50.866741
2022-10-08T09:49:34.137Z,50.866589
2022-10-08T09:50:34.119Z,50.866436
2022-10-08T09:51:34.161Z,50.866169
2022-10-08T09:52:34.102Z,50.865906
2022-10-08T09:53:34.093Z,50.866615
2022-10-08T09:54:34.085Z,50.866470
2022-10-08T09:55:34.087Z,50.866066
2022-10-08T09:56:34.071Z,50.865753
2022-10-08T09:57:34.063Z,50.865677
2022-10-08T09:58:34.066Z,50.866119
2022-10-08T09:59:34.051Z,50.866623
2022-10-08T10:00:34.040Z,50.866673
2022-10-08T10:01:34.099Z,50.866634
2022-10-08T10:02:34.022Z,50.866726
2022-10-08T10:03:34.052Z,50.866680
2022-10-08T10:04:34.011Z,50.866611
2022-10-08T10:05:34.000Z,50.866650
2022-10-08T10:06:33.997Z,50.866653
2022-10-08T10:07:33.982Z,50.866634
2022-10-08T10:08:34.693Z,50.866657
2022-10-08T10:09:33.968Z,50.866669
2022-10-08T10:10:33.966Z,50.866684
2022-10-08T10:11:33.953Z,50.866684
2022-10-08T10:12:33.944Z,50.866669
2022-10-08T10:13:33.934Z,50.866684
2022-10-08T10:14:33.933Z,50.866688
2022-10-08T10:15:33.945Z,50.866703
2022-10-08T10:16:34.036Z,50.866711
2022-10-08T10:17:33.903Z,50.866695
2022-10-08T10:18:33.887Z,50.866699
2022-10-08T10:19:33.898Z,50.866692
2022-10-08T10:20:33.869Z,50.866657
2022-10-08T10:21:33.870Z,50.866619
2022-10-08T10:22:33.855Z,50.866585
2022-10-08T10:23:33.858Z,50.866631
2022-10-08T10:24:34.710Z,50.866703
2022-10-08T10:25:33.842Z,50.866707
2022-10-08T10:26:33.824Z,50.866615
2022-10-08T10:27:33.811Z,50.866577
2022-10-08T10:28:33.895Z,50.866653
2022-10-08T10:29:33.810Z,50.866680
2022-10-08T10:30:33.832Z,50.866650
2022-10-08T10:31:33.779Z,50.866619
2022-10-08T10:32:33.794Z,50.866573
2022-10-08T10:33:33.772Z,50.866611
2022-10-08T10:34:33.764Z,50.866592
2022-10-08T10:35:33.757Z,50.866623
2022-10-08T10:36:33.740Z,50.866657
2022-10-08T10:37:33.738Z,50.866627
2022-10-08T10:38:33.718Z,50.866623
2022-10-08T10:39:34.695Z,50.866631
2022-10-08T10:40:33.718Z,50.866692
2022-10-08T10:41:33.696Z,50.866638
2022-10-08T10:42:33.701Z,50.866673
2022-10-08T10:43:33.687Z,50.866676
2022-10-08T10:44:33.691Z,50.866650
2022-10-08T10:45:33.679Z,50.866669
2022-10-08T10:46:33.715Z,50.866680
2022-10-08T10:47:33.649Z,50.866760
2022-10-08T10:48:33.644Z,50.866749
2022-10-08T10:49:33.631Z,50.866695
2022-10-08T10:50:33.632Z,50.866837
2022-10-08T10:51:33.623Z,50.866707
2022-10-08T10:52:33.627Z,50.866730
2022-10-08T10:53:33.600Z,50.866692
2022-10-08T10:54:33.602Z,50.866669
2022-10-08T10:55:33.619Z,50.866653
2022-10-08T10:56:33.573Z,50.866707
2022-10-08T10:57:33.581Z,50.866650
2022-10-08T10:58:33.564Z,50.866657
2022-10-08T10:59:33.554Z,50.866669
2022-10-08T11:00:33.580Z,50.866665
2022-10-08T11:01:33.631Z,50.866661
2022-10-08T11:02:33.562Z,50.866657
2022-10-08T11:03:33.520Z,50.866638
2022-10-08T11:04:33.513Z,50.866642
2022-10-08T11:05:33.542Z,50.866631
2022-10-08T11:06:33.498Z,50.866650
2022-10-08T11:07:33.557Z,50.866627
2022-10-08T11:08:34.122Z,50.866661
2022-10-08T11:09:35.127Z,50.866665
2022-10-08T11:10:33.466Z,50.866665
2022-10-08T11:11:33.481Z,50.866707
2022-10-08T11:12:33.471Z,50.866734
2022-10-08T11:13:33.443Z,50.866764
2022-10-08T11:14:33.439Z,50.866768
2022-10-08T11:15:33.473Z,50.866722
2022-10-08T11:16:33.418Z,50.866714
2022-10-08T11:17:33.435Z,50.866737
2022-10-08T11:18:33.411Z,50.866745
2022-10-08T11:19:33.426Z,50.866776
2022-10-08T11:20:33.389Z,50.866795
2022-10-08T11:21:33.391Z,50.866779
2022-10-08T11:22:33.378Z,50.866795
2022-10-08T11:23:33.362Z,50.866783
2022-10-08T11:24:33.357Z,50.866768
2022-10-08T11:25:44.903Z,50.866745
2022-10-08T11:26:35.342Z,50.866695
2022-10-08T11:27:33.346Z,50.866703
2022-10-08T11:28:33.418Z,50.866688
2022-10-08T11:29:34.139Z,50.866699
2022-10-08T11:30:33.308Z,50.866680
2022-10-08T11:31:33.299Z,50.866714
2022-10-08T11:32:33.292Z,50.866703
2022-10-08T11:33:33.297Z,50.866756
2022-10-08T11:34:33.274Z,50.866749
2022-10-08T11:35:33.275Z,50.866760
2022-10-08T11:36:33.389Z,50.866764
2022-10-08T11:37:33.252Z,50.866760
2022-10-08T11:38:33.252Z,50.866756
2022-10-08T11:39:33.220Z,50.866734